Friedman Memorial Airport
KSUN : rendu visible

Aérodrome :











RETROUVEZ-NOUS SUR...

 
LOGIN :

S'inscrire | Disclaimer

   EN    FR    IT 

 









Légende :    VFR   VFR Marginal   IFR   IFR Intensif   IFR Très Intensif
Visi : 
Plafond : 
>= 8 km
>= 3000ft
5 à 8 km
1000 à 3000 ft
1500m à 5 km
500 à 1000 ft
800 à 1500m
200 à 500 ft
< 800m
< 200 ft
Symboles :   Orages  Brouillard  Fortes neiges  Fortes précipitations  Vent > 20 kt






- Altitude de l'aérodrome : 5318 ft


KSUN - Friedman Memorial

DERNIER METAR :
  • 040815Z AUTO 32006KT 10SM CLR 12/05 A3001 RMK AO2

METARs EXPIRÉS :
  • 040755Z AUTO 33006KT 10SM CLR 12/05 A3001 RMK AO2
  • 040735Z AUTO 28004KT 10SM BKN110 12/05 A3002 RMK AO2
  • 040715Z AUTO 31003KT 10SM OVC110 14/05 A3003 RMK AO2
  • 040655Z AUTO 32008KT 10SM BKN110 13/05 A3003 RMK AO2
  • 040635Z AUTO 32006KT 10SM SCT110 13/05 A3003 RMK AO2
  • 040615Z AUTO 33005KT 10SM CLR 15/05 A3003 RMK AO2

TAF KSUN
Valide du 04 à 06h jusqu'au 05 à 12h UTC


040520Z 0406/0512 31008KT P6SM FEW100 FEW150
FM040800 32006KT P6SM BKN080 BKN150
FM041400 31010KT P6SM FEW050 SCT090
FM041800 24015G25KT P6SM FEW050
FM050200 30006KT P6SM SKC AMD LTD TO CLD VIS AND WIND TIL 041400
FIR KZLC / Amérique du Nord



MET'MAP, la Météo Aéronautique d'un coup d'oeil ! - Copyright ORBIFLY Décembre 2007 - Disclaimer

ORBIFLY MET'MAP TEAM :

Programmation & Développement : Alexandra Zaïnal
Sur une idée originale de : Baudouin d'Aumeries
Assistance à la programmation : Marc-Olivier Méhu
Soutien technique & logistique : Manuel Goepfert

Contact : metmap@orbifly.com




SOURCES & CREDITS :

   NOAA       Earth
Advisory